JA86GR RJTH-RJTT
Flight info
| Callsign | JA86GR |
|---|---|
| Flight time | 0h 42m |
| Altitude | 15000 |
| Route | TOPIT Y875 AROSA |
| Aircraft | HDJT/L-SABDGRWY/H |
Departure
| Time | 2026-05-08 05:08 |
|---|---|
| Airport | Hachijojima Airport (RJTH) |
Arrival
| Time | 2026-05-08 05:50 |
|---|---|
| Airport | Tokyo Haneda International Airport (RJTT) |
| Time | Latitude | Longitude | Altitude | Speed | Heading |
|---|---|---|---|---|---|
| 2026-05-08 04:42 | 33.11555 | 139.78231 | 290 ft | 0 kts | 339° |
| 2026-05-08 05:03 | 33.11563 | 139.78230 | 284 ft | 7 kts | 9° |
| 2026-05-08 05:03 | 33.11576 | 139.78275 | 283 ft | 6 kts | 117° |
| 2026-05-08 05:03 | 33.11545 | 139.78318 | 283 ft | 9 kts | 139° |
| 2026-05-08 05:03 | 33.11482 | 139.78353 | 284 ft | 8 kts | 152° |
| 2026-05-08 05:04 | 33.11459 | 139.78395 | 285 ft | 7 kts | 96° |
| 2026-05-08 05:04 | 33.11477 | 139.78479 | 289 ft | 14 kts | 69° |
| 2026-05-08 05:04 | 33.11508 | 139.78584 | 288 ft | 12 kts | 71° |
| 2026-05-08 05:04 | 33.11535 | 139.78664 | 288 ft | 9 kts | 68° |
| 2026-05-08 05:05 | 33.11554 | 139.78725 | 290 ft | 8 kts | 66° |
| 2026-05-08 05:05 | 33.11577 | 139.78800 | 288 ft | 10 kts | 71° |
| 2026-05-08 05:05 | 33.11601 | 139.78887 | 287 ft | 12 kts | 72° |
| 2026-05-08 05:05 | 33.11636 | 139.78999 | 285 ft | 18 kts | 72° |
| 2026-05-08 05:06 | 33.11678 | 139.79165 | 282 ft | 22 kts | 81° |
| 2026-05-08 05:06 | 33.11720 | 139.79346 | 277 ft | 23 kts | 68° |
| 2026-05-08 05:06 | 33.11782 | 139.79512 | 273 ft | 20 kts | 40° |
| 2026-05-08 05:06 | 33.11808 | 139.79514 | 274 ft | 0 kts | 265° |
| 2026-05-08 05:07 | 33.11769 | 139.79399 | 277 ft | 46 kts | 246° |
| 2026-05-08 05:07 | 33.11558 | 139.78772 | 289 ft | 114 kts | 245° |
| 2026-05-08 05:08 | 33.11277 | 139.77790 | 721 ft | 138 kts | 249° |
| 2026-05-08 05:08 | 33.11324 | 139.76531 | 1073 ft | 173 kts | 287° |
| 2026-05-08 05:08 | 33.12250 | 139.75414 | 1327 ft | 214 kts | 325° |
| 2026-05-08 05:08 | 33.13786 | 139.75056 | 2215 ft | 229 kts | 352° |
| 2026-05-08 05:09 | 33.15378 | 139.75000 | 3207 ft | 238 kts | 352° |
| 2026-05-08 05:09 | 33.17085 | 139.74955 | 3968 ft | 244 kts | 353° |
| 2026-05-08 05:09 | 33.18774 | 139.74928 | 4976 ft | 243 kts | 353° |
| 2026-05-08 05:09 | 33.20458 | 139.74908 | 5841 ft | 246 kts | 352° |
| 2026-05-08 05:10 | 33.22186 | 139.74888 | 6706 ft | 248 kts | 353° |
| 2026-05-08 05:10 | 33.25691 | 139.74850 | 8330 ft | 256 kts | 353° |
| 2026-05-08 05:10 | 33.27491 | 139.74830 | 9153 ft | 260 kts | 353° |
| 2026-05-08 05:11 | 33.29328 | 139.74805 | 9959 ft | 264 kts | 353° |
| 2026-05-08 05:11 | 33.31155 | 139.74780 | 10718 ft | 266 kts | 353° |
| 2026-05-08 05:11 | 33.33034 | 139.74751 | 11471 ft | 269 kts | 353° |
| 2026-05-08 05:11 | 33.34901 | 139.74719 | 12214 ft | 272 kts | 353° |
| 2026-05-08 05:12 | 33.36816 | 139.74690 | 12968 ft | 275 kts | 353° |
| 2026-05-08 05:12 | 33.38724 | 139.74657 | 13706 ft | 278 kts | 353° |
| 2026-05-08 05:12 | 33.40672 | 139.74619 | 14364 ft | 280 kts | 353° |
| 2026-05-08 05:12 | 33.42644 | 139.74578 | 14950 ft | 287 kts | 353° |
| 2026-05-08 05:13 | 33.44708 | 139.74520 | 14989 ft | 311 kts | 353° |
| 2026-05-08 05:13 | 33.46960 | 139.74440 | 14997 ft | 334 kts | 353° |
| 2026-05-08 05:13 | 33.49362 | 139.74336 | 14996 ft | 354 kts | 353° |
| 2026-05-08 05:13 | 33.51841 | 139.74218 | 14994 ft | 361 kts | 353° |
| 2026-05-08 05:14 | 33.54353 | 139.74099 | 14992 ft | 359 kts | 353° |
| 2026-05-08 05:14 | 33.56871 | 139.74128 | 14983 ft | 364 kts | 4° |
| 2026-05-08 05:14 | 33.59286 | 139.75050 | 14974 ft | 371 kts | 22° |
| 2026-05-08 05:14 | 33.61563 | 139.76571 | 14911 ft | 375 kts | 28° |
| 2026-05-08 05:15 | 33.63759 | 139.78198 | 14851 ft | 373 kts | 30° |
| 2026-05-08 05:15 | 33.65943 | 139.79923 | 14852 ft | 373 kts | 31° |
| 2026-05-08 05:15 | 33.68079 | 139.81655 | 14849 ft | 374 kts | 32° |
| 2026-05-08 05:15 | 33.70245 | 139.83419 | 14852 ft | 375 kts | 32° |
| 2026-05-08 05:16 | 33.72403 | 139.85181 | 14847 ft | 375 kts | 32° |
| 2026-05-08 05:16 | 33.74566 | 139.86953 | 14846 ft | 375 kts | 32° |
| 2026-05-08 05:16 | 33.76776 | 139.88527 | 14840 ft | 372 kts | 21° |
| 2026-05-08 05:16 | 33.79183 | 139.89684 | 14846 ft | 370 kts | 16° |
| 2026-05-08 05:17 | 33.81622 | 139.90711 | 14843 ft | 370 kts | 15° |
| 2026-05-08 05:17 | 33.84032 | 139.91699 | 14851 ft | 369 kts | 15° |
| 2026-05-08 05:17 | 33.86451 | 139.92684 | 14843 ft | 369 kts | 15° |
| 2026-05-08 05:17 | 33.88899 | 139.93674 | 14838 ft | 370 kts | 14° |
| 2026-05-08 05:18 | 33.91352 | 139.94660 | 14840 ft | 370 kts | 14° |
| 2026-05-08 05:18 | 33.93759 | 139.95638 | 14840 ft | 369 kts | 14° |
| 2026-05-08 05:18 | 33.96208 | 139.96633 | 14838 ft | 369 kts | 14° |
| 2026-05-08 05:18 | 33.98662 | 139.97554 | 14832 ft | 367 kts | 9° |
| 2026-05-08 05:19 | 34.01137 | 139.98088 | 14834 ft | 364 kts | 3° |
| 2026-05-08 05:19 | 34.03663 | 139.98478 | 14832 ft | 364 kts | 2° |
| 2026-05-08 05:19 | 34.06182 | 139.98835 | 14831 ft | 364 kts | 2° |
| 2026-05-08 05:19 | 34.08706 | 139.99183 | 14825 ft | 364 kts | 1° |
| 2026-05-08 05:20 | 34.11194 | 139.99523 | 14828 ft | 364 kts | 1° |
| 2026-05-08 05:20 | 34.13724 | 139.99867 | 14826 ft | 364 kts | 1° |
| 2026-05-08 05:20 | 34.16256 | 140.00210 | 14826 ft | 364 kts | 1° |
| 2026-05-08 05:20 | 34.18751 | 140.00574 | 14820 ft | 366 kts | 5° |
| 2026-05-08 05:21 | 34.21174 | 140.01626 | 14807 ft | 374 kts | 27° |
| 2026-05-08 05:21 | 34.23177 | 140.03671 | 14801 ft | 378 kts | 50° |
| 2026-05-08 05:21 | 34.24563 | 140.06328 | 14813 ft | 378 kts | 63° |
| 2026-05-08 05:21 | 34.25742 | 140.09185 | 14824 ft | 378 kts | 63° |
| 2026-05-08 05:22 | 34.27064 | 140.11944 | 14821 ft | 379 kts | 55° |
| 2026-05-08 05:22 | 34.28686 | 140.14450 | 14821 ft | 379 kts | 49° |
| 2026-05-08 05:22 | 34.30156 | 140.17059 | 14802 ft | 380 kts | 65° |
| 2026-05-08 05:22 | 34.31192 | 140.20007 | 14815 ft | 379 kts | 67° |
| 2026-05-08 05:23 | 34.32311 | 140.22907 | 14819 ft | 380 kts | 65° |
| 2026-05-08 05:23 | 34.33397 | 140.25782 | 14824 ft | 380 kts | 68° |
| 2026-05-08 05:23 | 34.34401 | 140.28752 | 14820 ft | 379 kts | 69° |
| 2026-05-08 05:23 | 34.35416 | 140.31710 | 14823 ft | 380 kts | 68° |
| 2026-05-08 05:24 | 34.36484 | 140.34605 | 14822 ft | 381 kts | 66° |
| 2026-05-08 05:24 | 34.37557 | 140.37552 | 14821 ft | 381 kts | 68° |
| 2026-05-08 05:24 | 34.38583 | 140.40511 | 14819 ft | 381 kts | 68° |
| 2026-05-08 05:24 | 34.39608 | 140.43437 | 14820 ft | 381 kts | 68° |
| 2026-05-08 05:25 | 34.40673 | 140.46391 | 14822 ft | 381 kts | 67° |
| 2026-05-08 05:25 | 34.41732 | 140.49356 | 14824 ft | 381 kts | 68° |
| 2026-05-08 05:25 | 34.42900 | 140.52200 | 14820 ft | 382 kts | 55° |
| 2026-05-08 05:25 | 34.44619 | 140.54517 | 14818 ft | 356 kts | 36° |
| 2026-05-08 05:26 | 34.46714 | 140.55841 | 14812 ft | 328 kts | 11° |
| 2026-05-08 05:26 | 34.48885 | 140.56252 | 14818 ft | 316 kts | 354° |
| 2026-05-08 05:26 | 34.51001 | 140.55952 | 14819 ft | 304 kts | 337° |
| 2026-05-08 05:26 | 34.52975 | 140.55161 | 14633 ft | 304 kts | 332° |
| 2026-05-08 05:27 | 34.54971 | 140.54338 | 14353 ft | 300 kts | 334° |
| 2026-05-08 05:27 | 34.56942 | 140.53596 | 14075 ft | 299 kts | 335° |
| 2026-05-08 05:27 | 34.58926 | 140.52844 | 13803 ft | 297 kts | 334° |
| 2026-05-08 05:27 | 34.60890 | 140.52070 | 13522 ft | 296 kts | 334° |
| 2026-05-08 05:28 | 34.62848 | 140.51303 | 13210 ft | 294 kts | 334° |
| 2026-05-08 05:28 | 34.64775 | 140.50560 | 12906 ft | 293 kts | 334° |
| 2026-05-08 05:28 | 34.66723 | 140.49803 | 12602 ft | 292 kts | 334° |
| 2026-05-08 05:28 | 34.68659 | 140.49048 | 12299 ft | 290 kts | 334° |
| 2026-05-08 05:29 | 34.70562 | 140.48306 | 12007 ft | 289 kts | 334° |
| 2026-05-08 05:29 | 34.72483 | 140.47558 | 11707 ft | 288 kts | 334° |
| 2026-05-08 05:29 | 34.74368 | 140.46824 | 11416 ft | 287 kts | 334° |
| 2026-05-08 05:29 | 34.76271 | 140.46082 | 11131 ft | 286 kts | 334° |
| 2026-05-08 05:30 | 34.78159 | 140.45346 | 10844 ft | 284 kts | 334° |
| 2026-05-08 05:30 | 34.80023 | 140.44620 | 10553 ft | 273 kts | 334° |
| 2026-05-08 05:30 | 34.81772 | 140.43946 | 10262 ft | 261 kts | 334° |
| 2026-05-08 05:30 | 34.83492 | 140.43265 | 9976 ft | 258 kts | 334° |
| 2026-05-08 05:31 | 34.85199 | 140.42592 | 9694 ft | 257 kts | 334° |
| 2026-05-08 05:31 | 34.86882 | 140.41936 | 9388 ft | 256 kts | 334° |
| 2026-05-08 05:31 | 34.88579 | 140.41273 | 9080 ft | 255 kts | 334° |
| 2026-05-08 05:31 | 34.90267 | 140.40613 | 8790 ft | 253 kts | 334° |
| 2026-05-08 05:32 | 34.91942 | 140.39957 | 8480 ft | 252 kts | 334° |
| 2026-05-08 05:32 | 34.93608 | 140.39304 | 8180 ft | 250 kts | 334° |
| 2026-05-08 05:32 | 34.95237 | 140.38667 | 7998 ft | 245 kts | 334° |
| 2026-05-08 05:32 | 34.96868 | 140.38026 | 8002 ft | 248 kts | 334° |
| 2026-05-08 05:33 | 34.98518 | 140.37377 | 8000 ft | 248 kts | 334° |
| 2026-05-08 05:33 | 35.00170 | 140.36731 | 7998 ft | 249 kts | 334° |
| 2026-05-08 05:33 | 35.01806 | 140.36087 | 7996 ft | 249 kts | 334° |
| 2026-05-08 05:33 | 35.03473 | 140.35434 | 7993 ft | 249 kts | 334° |
| 2026-05-08 05:34 | 35.05106 | 140.34795 | 7983 ft | 250 kts | 335° |
| 2026-05-08 05:34 | 35.06752 | 140.34149 | 7971 ft | 250 kts | 335° |
| 2026-05-08 05:34 | 35.08390 | 140.33505 | 7973 ft | 249 kts | 334° |
| 2026-05-08 05:34 | 35.10020 | 140.32865 | 7599 ft | 244 kts | 334° |
| 2026-05-08 05:35 | 35.11648 | 140.32216 | 7017 ft | 255 kts | 335° |
| 2026-05-08 05:35 | 35.13293 | 140.31578 | 6981 ft | 242 kts | 335° |
| 2026-05-08 05:35 | 35.14891 | 140.30946 | 6981 ft | 244 kts | 334° |
| 2026-05-08 05:35 | 35.16507 | 140.30305 | 6978 ft | 243 kts | 335° |
| 2026-05-08 05:36 | 35.18115 | 140.29672 | 6979 ft | 242 kts | 335° |
| 2026-05-08 05:36 | 35.19707 | 140.29043 | 6976 ft | 244 kts | 335° |
| 2026-05-08 05:36 | 35.21336 | 140.28402 | 6978 ft | 245 kts | 335° |
| 2026-05-08 05:36 | 35.22951 | 140.27771 | 6979 ft | 241 kts | 335° |
| 2026-05-08 05:37 | 35.24566 | 140.27129 | 6970 ft | 243 kts | 335° |
| 2026-05-08 05:37 | 35.26157 | 140.26499 | 6973 ft | 242 kts | 335° |
| 2026-05-08 05:37 | 35.27771 | 140.25859 | 6967 ft | 241 kts | 335° |
| 2026-05-08 05:37 | 35.29364 | 140.25230 | 6971 ft | 245 kts | 335° |
| 2026-05-08 05:38 | 35.30982 | 140.24589 | 6970 ft | 244 kts | 335° |
| 2026-05-08 05:38 | 35.32597 | 140.23960 | 6965 ft | 243 kts | 337° |
| 2026-05-08 05:38 | 35.34253 | 140.23475 | 6965 ft | 246 kts | 342° |
| 2026-05-08 05:38 | 35.35929 | 140.23095 | 6960 ft | 247 kts | 342° |
| 2026-05-08 05:39 | 35.37614 | 140.22687 | 6963 ft | 245 kts | 341° |
| 2026-05-08 05:39 | 35.39281 | 140.22250 | 6963 ft | 244 kts | 340° |
| 2026-05-08 05:39 | 35.40937 | 140.21824 | 6958 ft | 245 kts | 341° |
| 2026-05-08 05:39 | 35.42606 | 140.21405 | 6952 ft | 244 kts | 341° |
| 2026-05-08 05:40 | 35.44281 | 140.20981 | 6952 ft | 245 kts | 341° |
| 2026-05-08 05:40 | 35.45935 | 140.20560 | 6953 ft | 246 kts | 341° |
| 2026-05-08 05:40 | 35.47617 | 140.20130 | 6952 ft | 245 kts | 341° |
| 2026-05-08 05:40 | 35.49291 | 140.19709 | 6952 ft | 245 kts | 341° |
| 2026-05-08 05:41 | 35.50959 | 140.19286 | 6951 ft | 245 kts | 341° |
| 2026-05-08 05:41 | 35.52618 | 140.18862 | 6949 ft | 245 kts | 341° |
| 2026-05-08 05:41 | 35.54283 | 140.18423 | 6950 ft | 244 kts | 340° |
| 2026-05-08 05:41 | 35.55389 | 140.18123 | 6944 ft | 245 kts | 340° |
| 2026-05-08 05:42 | 35.57626 | 140.17556 | 6948 ft | 246 kts | 341° |
| 2026-05-08 05:42 | 35.58743 | 140.17279 | 6947 ft | 247 kts | 340° |
| 2026-05-08 05:42 | 35.61000 | 140.16702 | 6817 ft | 249 kts | 339° |
| 2026-05-08 05:42 | 35.62041 | 140.16186 | 6631 ft | 237 kts | 320° |
| 2026-05-08 05:43 | 35.63084 | 140.14766 | 6367 ft | 216 kts | 288° |
| 2026-05-08 05:43 | 35.63275 | 140.13010 | 6198 ft | 206 kts | 259° |
| 2026-05-08 05:43 | 35.62867 | 140.11352 | 6107 ft | 205 kts | 246° |
| 2026-05-08 05:43 | 35.62323 | 140.09729 | 5981 ft | 205 kts | 248° |
| 2026-05-08 05:44 | 35.61806 | 140.08081 | 5826 ft | 206 kts | 248° |
| 2026-05-08 05:44 | 35.61310 | 140.06450 | 5648 ft | 204 kts | 250° |
| 2026-05-08 05:44 | 35.61010 | 140.04741 | 5442 ft | 206 kts | 261° |
| 2026-05-08 05:44 | 35.60905 | 140.02998 | 5252 ft | 207 kts | 262° |
| 2026-05-08 05:45 | 35.60827 | 140.01232 | 5068 ft | 206 kts | 263° |
| 2026-05-08 05:45 | 35.60756 | 139.99475 | 4880 ft | 205 kts | 263° |
| 2026-05-08 05:45 | 35.60686 | 139.97727 | 4701 ft | 206 kts | 263° |
| 2026-05-08 05:45 | 35.60620 | 139.95966 | 4526 ft | 204 kts | 263° |
| 2026-05-08 05:46 | 35.60556 | 139.94299 | 4441 ft | 183 kts | 263° |
| 2026-05-08 05:46 | 35.60511 | 139.92853 | 4314 ft | 160 kts | 263° |
| 2026-05-08 05:46 | 35.60492 | 139.91563 | 4103 ft | 145 kts | 263° |
| 2026-05-08 05:46 | 35.60484 | 139.90340 | 3879 ft | 143 kts | 263° |
| 2026-05-08 05:47 | 35.60480 | 139.89125 | 3651 ft | 141 kts | 263° |
| 2026-05-08 05:47 | 35.60480 | 139.87925 | 3422 ft | 139 kts | 263° |
| 2026-05-08 05:47 | 35.60486 | 139.86753 | 3216 ft | 138 kts | 263° |
| 2026-05-08 05:47 | 35.60459 | 139.85501 | 2907 ft | 162 kts | 260° |
| 2026-05-08 05:48 | 35.60404 | 139.84158 | 2576 ft | 151 kts | 259° |
| 2026-05-08 05:48 | 35.60174 | 139.83013 | 2029 ft | 128 kts | 246° |
| 2026-05-08 05:48 | 35.59861 | 139.82026 | 1410 ft | 119 kts | 239° |
| 2026-05-08 05:48 | 35.59521 | 139.81145 | 988 ft | 111 kts | 233° |
| 2026-05-08 05:49 | 35.59182 | 139.80277 | 560 ft | 116 kts | 237° |
| 2026-05-08 05:49 | 35.58799 | 139.79428 | 319 ft | 110 kts | 221° |
| 2026-05-08 05:49 | 35.58216 | 139.78858 | 294 ft | 107 kts | 206° |
| 2026-05-08 05:49 | 35.57560 | 139.78397 | 299 ft | 111 kts | 207° |
| 2026-05-08 05:50 | 35.56919 | 139.77886 | 129 ft | 109 kts | 208° |
| 2026-05-08 05:50 | 35.56346 | 139.77360 | 32 ft | 83 kts | 203° |
| 2026-05-08 05:50 | 35.56076 | 139.77136 | 27 ft | 25 kts | 214° |
| 2026-05-08 05:50 | 35.55945 | 139.77037 | 24 ft | 19 kts | 206° |
| 2026-05-08 05:51 | 35.55877 | 139.76948 | 23 ft | 10 kts | 171° |
| 2026-05-08 05:51 | 35.55841 | 139.76941 | 23 ft | 4 kts | 209° |
| 2026-05-08 05:51 | 35.55818 | 139.76933 | 22 ft | 3 kts | 179° |
| 2026-05-08 05:51 | 35.55807 | 139.76938 | 22 ft | 1 kts | 153° |
| 2026-05-08 05:52 | 35.55779 | 139.76939 | 21 ft | 5 kts | 197° |
| 2026-05-08 05:52 | 35.55756 | 139.76930 | 20 ft | 2 kts | 199° |
| 2026-05-08 05:52 | 35.55753 | 139.76929 | 20 ft | 0 kts | 199° |
| 2026-05-08 05:53 | 35.55711 | 139.76910 | 20 ft | 19 kts | 199° |
| 2026-05-08 05:53 | 35.55687 | 139.76904 | 20 ft | 1 kts | 177° |
| 2026-05-08 05:53 | 35.55629 | 139.76920 | 19 ft | 14 kts | 158° |
| 2026-05-08 05:53 | 35.55600 | 139.76943 | 19 ft | 1 kts | 79° |
| 2026-05-08 05:54 | 35.55629 | 139.77002 | 17 ft | 0 kts | 59° |
| 2026-05-08 05:54 | 35.55632 | 139.77008 | 17 ft | 6 kts | 44° |
| 2026-05-08 05:54 | 35.55704 | 139.77084 | 20 ft | 16 kts | 31° |
| 2026-05-08 05:54 | 35.55803 | 139.77167 | 17 ft | 20 kts | 29° |
| 2026-05-08 05:55 | 35.55917 | 139.77268 | 20 ft | 21 kts | 35° |
| 2026-05-08 05:55 | 35.56051 | 139.77371 | 20 ft | 24 kts | 57° |
| 2026-05-08 05:55 | 35.56067 | 139.77564 | 18 ft | 25 kts | 81° |
| 2026-05-08 05:55 | 35.56125 | 139.77724 | 19 ft | 8 kts | 45° |
| 2026-05-08 05:56 | 35.56170 | 139.77784 | 20 ft | 11 kts | 70° |
| 2026-05-08 05:56 | 35.56209 | 139.77884 | 20 ft | 15 kts | 63° |
| 2026-05-08 05:56 | 35.56268 | 139.78011 | 20 ft | 19 kts | 60° |
| 2026-05-08 05:56 | 35.56340 | 139.78123 | 20 ft | 5 kts | 329° |
| 2026-05-08 05:57 | 35.56344 | 139.78111 | 20 ft | 3 kts | 283° |
| 2026-05-08 05:57 | 35.56367 | 139.78072 | 20 ft | 5 kts | 321° |
| 2026-05-08 05:57 | 35.56390 | 139.78054 | 20 ft | 4 kts | 331° |
| 2026-05-08 05:57 | 35.56406 | 139.78042 | 20 ft | 0 kts | 330° |